In Rescue
 
Open Full Screen Window  High Contrast Mode
Wind Gusting 00 knots
04
October 19, 2020 7:53 PM EDT
Weather Information
Wind Direction
  230 °
Wind Speed
  04 kt (5 mph)
Wind Gust
  00 kt (0 mph)
Altimeter
30.23 in
Visibility
10 SM
Temperature
05° C
41° F
Dewpoint
00° C
32° F
Humidity
70%
Sky Condition
Overcast @ 8,500 ft
Scattered @ 4,100 ft
VFR

METAR KCVX 192353Z AUTO 23004KT 10SM SCT041 OVC085 05/00 A3023 RMK AO2 T00451003

FAA Disclaimer: The data displayed is for advisory purposes only and is not to be used for flight planning or operations.